Time,TemperatureF,DewpointF,PressureIn,WindDirection,WindDirectionDegrees,WindSpeedMPH,WindSpeedGustMPH,Humidity,HourlyPrecipIn,Conditions,Clouds,dailyrainin,SoftwareType,DateUTC
2013-04-06 00:32:00,50.0,40.0,-100.00,North,350,5.0,-999.0,68,-99.99,,,-99.99,,2013-04-06 06:32:00,
2013-04-06 00:42:00,50.0,40.0,-100.00,North,350,5.0,-999.0,68,-99.99,,,-99.99,,2013-04-06 06:42:00,
2013-04-06 00:52:00,50.0,40.0,-100.00,North,350,5.0,-999.0,68,-99.99,,,-99.99,,2013-04-06 06:52:00,
2013-04-06 01:33:00,49.0,39.0,-100.00,NW,320,6.0,-999.0,68,-99.99,,,-99.99,,2013-04-06 07:33:00,
2013-04-06 01:43:00,49.0,39.0,-100.00,NW,320,6.0,-999.0,68,-99.99,,,-99.99,,2013-04-06 07:43:00,
2013-04-06 01:52:00,49.0,39.0,-100.00,NW,320,6.0,-999.0,68,-99.99,,,-99.99,,2013-04-06 07:52:00,
2013-04-06 02:32:00,44.0,38.0,-100.00,WSW,250,5.0,-999.0,78,-99.99,,,-99.99,,2013-04-06 08:32:00,
2013-04-06 02:42:00,44.0,38.0,-100.00,WSW,250,5.0,-999.0,78,-99.99,,,-99.99,,2013-04-06 08:42:00,
2013-04-06 02:52:00,44.0,38.0,-100.00,WSW,250,5.0,-999.0,78,-99.99,,,-99.99,,2013-04-06 08:52:00,
2013-04-06 03:33:00,46.0,38.0,-100.00,West,270,6.0,-999.0,73,-99.99,,,-99.99,,2013-04-06 09:33:00,
2013-04-06 03:43:00,46.0,38.0,-100.00,West,270,6.0,-999.0,73,-99.99,,,-99.99,,2013-04-06 09:43:00,
2013-04-06 03:53:00,46.0,38.0,-100.00,West,270,6.0,-999.0,73,-99.99,,,-99.99,,2013-04-06 09:53:00,
2013-04-06 04:33:00,47.0,36.0,-100.00,WSW,240,7.0,-999.0,65,-99.99,,,-99.99,,2013-04-06 10:33:00,
2013-04-06 04:42:00,47.0,36.0,-100.00,WSW,240,7.0,-999.0,65,-99.99,,,-99.99,,2013-04-06 10:42:00,
2013-04-06 04:52:00,47.0,36.0,-100.00,WSW,240,7.0,-999.0,65,-99.99,,,-99.99,,2013-04-06 10:52:00,
2013-04-06 05:33:00,49.0,35.0,-100.00,West,280,12.0,-999.0,58,-99.99,,,-99.99,,2013-04-06 11:33:00,
2013-04-06 05:43:00,49.0,35.0,-100.00,West,280,12.0,-999.0,58,-99.99,,,-99.99,,2013-04-06 11:43:00,
2013-04-06 05:52:00,49.0,35.0,-100.00,West,280,12.0,-999.0,58,-99.99,,,-99.99,,2013-04-06 11:52:00,
2013-04-06 06:33:00,45.0,35.0,-100.00,NW,310,8.0,-999.0,68,-99.99,,,-99.99,,2013-04-06 12:33:00,
2013-04-06 06:43:00,45.0,35.0,-100.00,NW,310,8.0,-999.0,68,-99.99,,,-99.99,,2013-04-06 12:43:00,
2013-04-06 06:52:00,45.0,35.0,-100.00,NW,310,8.0,-999.0,68,-99.99,,,-99.99,,2013-04-06 12:52:00,
2013-04-06 07:32:00,39.0,35.0,-100.00,NNW,340,12.0,-999.0,85,-99.99,,,-99.99,,2013-04-06 13:32:00,
2013-04-06 07:43:00,39.0,35.0,-100.00,NNW,340,12.0,-999.0,85,-99.99,,,-99.99,,2013-04-06 13:43:00,
2013-04-06 07:52:00,39.0,35.0,-100.00,NNW,340,12.0,-999.0,85,-99.99,,,-99.99,,2013-04-06 13:52:00,
2013-04-06 08:33:00,37.0,35.0,-100.00,North,360,8.0,-999.0,92,-99.99,,,-99.99,,2013-04-06 14:33:00,
2013-04-06 08:42:00,37.0,35.0,-100.00,North,360,8.0,-999.0,92,-99.99,,,-99.99,,2013-04-06 14:42:00,
2013-04-06 09:33:00,35.0,34.0,-100.00,North,10,8.0,-999.0,95,-99.99,,,-99.99,,2013-04-06 15:33:00,
2013-04-06 09:43:00,35.0,34.0,-100.00,North,10,8.0,-999.0,95,-99.99,,,-99.99,,2013-04-06 15:43:00,
2013-04-06 09:52:00,35.0,34.0,-100.00,North,10,8.0,-999.0,95,-99.99,,,-99.99,,2013-04-06 15:52:00,
2013-04-06 10:33:00,37.0,35.0,-100.00,NE,40,7.0,-999.0,92,-99.99,,,-99.99,,2013-04-06 16:33:00,
2013-04-06 10:42:00,37.0,35.0,-100.00,NE,40,7.0,-999.0,92,-99.99,,,-99.99,,2013-04-06 16:42:00,
2013-04-06 10:53:00,37.0,35.0,-100.00,NE,40,7.0,-999.0,92,-99.99,,,-99.99,,2013-04-06 16:53:00,
2013-04-06 11:32:00,36.0,33.0,-100.00,NNE,20,6.0,-999.0,89,-99.99,,,-99.99,,2013-04-06 17:32:00,
2013-04-06 11:42:00,36.0,33.0,-100.00,NNE,20,6.0,-999.0,89,-99.99,,,-99.99,,2013-04-06 17:42:00,
2013-04-06 11:52:00,36.0,33.0,-100.00,NNE,20,6.0,-999.0,89,-99.99,,,-99.99,,2013-04-06 17:52:00,
2013-04-06 12:32:00,38.0,33.0,-100.00,ENE,70,3.0,-999.0,82,-99.99,,,-99.99,,2013-04-06 18:32:00,
2013-04-06 12:42:00,38.0,33.0,-100.00,ENE,70,3.0,-999.0,82,-99.99,,,-99.99,,2013-04-06 18:42:00,
2013-04-06 12:52:00,38.0,33.0,-100.00,ENE,70,3.0,-999.0,82,-99.99,,,-99.99,,2013-04-06 18:52:00,
2013-04-06 13:33:00,39.0,35.0,-100.00,ENE,60,6.0,-999.0,85,-99.99,,,-99.99,,2013-04-06 19:33:00,
2013-04-06 13:42:00,39.0,35.0,-100.00,ENE,60,6.0,-999.0,85,-99.99,,,-99.99,,2013-04-06 19:42:00,
2013-04-06 13:53:00,39.0,35.0,-100.00,ENE,60,6.0,-999.0,85,-99.99,,,-99.99,,2013-04-06 19:53:00,
2013-04-06 15:33:00,45.0,36.0,-100.00,ENE,70,3.0,12.0,70,-99.99,,,-99.99,,2013-04-06 21:33:00,
2013-04-06 15:43:00,45.0,36.0,-100.00,ENE,70,3.0,12.0,70,-99.99,,,-99.99,,2013-04-06 21:43:00,
2013-04-06 15:52:00,45.0,36.0,-100.00,ENE,70,3.0,12.0,70,-99.99,,,-99.99,,2013-04-06 21:52:00,
2013-04-06 16:34:00,44.0,34.0,-100.00,ENE,70,9.0,-999.0,67,-99.99,,,-99.99,,2013-04-06 22:34:00,
2013-04-06 16:43:00,44.0,34.0,-100.00,ENE,70,9.0,-999.0,67,-99.99,,,-99.99,,2013-04-06 22:43:00,
2013-04-06 16:53:00,44.0,34.0,-100.00,ENE,70,9.0,-999.0,67,-99.99,,,-99.99,,2013-04-06 22:53:00,
2013-04-06 17:34:00,48.0,36.0,-100.00,NE,40,5.0,-999.0,62,-99.99,,,-99.99,,2013-04-06 23:34:00,
2013-04-06 17:42:00,48.0,36.0,-100.00,NE,40,5.0,-999.0,62,-99.99,,,-99.99,,2013-04-06 23:42:00,
2013-04-06 17:52:00,48.0,36.0,-100.00,NE,40,5.0,-999.0,62,-99.99,,,-99.99,,2013-04-06 23:52:00,
2013-04-06 19:32:00,44.0,34.0,-100.00,NE,40,2.0,-999.0,67,-99.99,,,-99.99,,2013-04-07 01:32:00,
2013-04-06 19:43:00,44.0,34.0,-100.00,NE,40,2.0,-999.0,67,-99.99,,,-99.99,,2013-04-07 01:43:00,
2013-04-06 19:52:00,44.0,34.0,-100.00,NE,40,2.0,-999.0,67,-99.99,,,-99.99,,2013-04-07 01:52:00,
2013-04-06 20:32:00,42.0,35.0,-100.00,NE,50,3.0,-999.0,75,-99.99,,,-99.99,,2013-04-07 02:32:00,
2013-04-06 20:43:00,42.0,35.0,-100.00,NE,50,3.0,-999.0,75,-99.99,,,-99.99,,2013-04-07 02:43:00,
2013-04-06 20:52:00,42.0,35.0,-100.00,NE,50,3.0,-999.0,75,-99.99,,,-99.99,,2013-04-07 02:52:00,
2013-04-06 21:35:00,39.0,34.0,-100.00,NE,50,5.0,-999.0,81,-99.99,,,-99.99,,2013-04-07 03:35:00,
2013-04-06 21:43:00,39.0,34.0,-100.00,NE,50,5.0,-999.0,81,-99.99,,,-99.99,,2013-04-07 03:43:00,
2013-04-06 21:53:00,39.0,34.0,-100.00,NE,50,5.0,-999.0,81,-99.99,,,-99.99,,2013-04-07 03:53:00,
2013-04-06 22:32:00,39.0,35.0,-100.00,ENE,60,5.0,-999.0,85,-99.99,,,-99.99,,2013-04-07 04:32:00,
2013-04-06 22:43:00,39.0,35.0,-100.00,ENE,60,5.0,-999.0,85,-99.99,,,-99.99,,2013-04-07 04:43:00,
2013-04-06 22:52:00,39.0,35.0,-100.00,ENE,60,5.0,-999.0,85,-99.99,,,-99.99,,2013-04-07 04:52:00,
2013-04-06 23:33:00,38.0,34.0,-100.00,East,80,3.0,-999.0,85,-99.99,,,-99.99,,2013-04-07 05:33:00,
2013-04-06 23:43:00,38.0,34.0,-100.00,East,80,3.0,-999.0,85,-99.99,,,-99.99,,2013-04-07 05:43:00,
2013-04-06 23:52:00,38.0,34.0,-100.00,East,80,3.0,-999.0,85,-99.99,,,-99.99,,2013-04-07 05:52:00,